LFQB 190130Z AUTO 08005KT 060V120 CAVOK 16/13 Q1011

ElémentsDécodage
LFQB Station météo située sur l'aérodrome de TROYES Barberey
190130Z émis le 19 du mois à 01h30 UTC
AUTO Bulletin édité par un automate
08005KT vent du 080°, 05 noeuds
060V120 vent de direction variable entre 060° et 120°
CAVOK Ceiling And Visibility OK
- Visibilité de 10 Km ou plus
- Pas de nuage au-dessous de 1500m ou au-dessous de l'altitude minimale du secteur la plus élevée (si>1500m) et absence de CB
- pas de temps présent significatif
16/13 température 16°C, point de rosée 13°C
 soit une humidité relative de 82%
Q1011 la pression au niveau de la mer (QNH) est de 1011 hPa